sensor_id;sensor_type;location;lat;lon;timestamp;P1;durP1;ratioP1;P2;durP2;ratioP2
3567;SDS011;1798;48.486;9.232;2022-10-16T00:02:13;10.10;;;3.00;;
3567;SDS011;1798;48.486;9.232;2022-10-16T00:04:41;5.43;;;2.53;;
3567;SDS011;1798;48.486;9.232;2022-10-16T00:07:08;10.10;;;2.40;;
3567;SDS011;1798;48.486;9.232;2022-10-16T00:09:35;5.00;;;2.93;;
3567;SDS011;1798;48.486;9.232;2022-10-16T00:12:02;11.03;;;2.60;;
3567;SDS011;1798;48.486;9.232;2022-10-16T00:14:31;8.30;;;2.90;;
3567;SDS011;1798;48.486;9.232;2022-10-16T00:16:58;19.90;;;2.37;;
3567;SDS011;1798;48.486;9.232;2022-10-16T00:19:25;9.20;;;2.60;;
3567;SDS011;1798;48.486;9.232;2022-10-16T00:21:53;10.80;;;2.63;;
3567;SDS011;1798;48.486;9.232;2022-10-16T00:24:20;6.80;;;2.40;;
3567;SDS011;1798;48.486;9.232;2022-10-16T00:26:48;9.67;;;3.10;;
3567;SDS011;1798;48.486;9.232;2022-10-16T00:29:15;7.10;;;3.00;;
3567;SDS011;1798;48.486;9.232;2022-10-16T00:31:42;7.37;;;3.10;;
3567;SDS011;1798;48.486;9.232;2022-10-16T00:34:08;5.10;;;2.40;;
3567;SDS011;1798;48.486;9.232;2022-10-16T00:36:35;7.17;;;2.80;;
3567;SDS011;1798;48.486;9.232;2022-10-16T00:39:03;18.07;;;3.00;;
3567;SDS011;1798;48.486;9.232;2022-10-16T00:41:30;4.87;;;2.40;;
3567;SDS011;1798;48.486;9.232;2022-10-16T00:43:58;3.60;;;2.03;;
3567;SDS011;1798;48.486;9.232;2022-10-16T00:46:27;6.93;;;2.07;;
3567;SDS011;1798;48.486;9.232;2022-10-16T00:48:56;17.27;;;4.73;;
3567;SDS011;1798;48.486;9.232;2022-10-16T00:51:30;11.33;;;2.37;;
3567;SDS011;1798;48.486;9.232;2022-10-16T00:54:01;18.20;;;2.57;;
3567;SDS011;1798;48.486;9.232;2022-10-16T00:56:31;8.70;;;2.30;;
3567;SDS011;1798;48.486;9.232;2022-10-16T00:58:58;9.33;;;2.60;;
3567;SDS011;1798;48.486;9.232;2022-10-16T01:01:26;3.67;;;2.13;;
3567;SDS011;1798;48.486;9.232;2022-10-16T01:03:52;9.10;;;2.50;;
3567;SDS011;1798;48.486;9.232;2022-10-16T01:06:21;7.00;;;2.40;;
3567;SDS011;1798;48.486;9.232;2022-10-16T01:08:53;4.70;;;2.33;;
3567;SDS011;1798;48.486;9.232;2022-10-16T01:11:27;11.40;;;2.20;;
3567;SDS011;1798;48.486;9.232;2022-10-16T01:14:00;4.10;;;2.47;;
3567;SDS011;1798;48.486;9.232;2022-10-16T01:16:31;12.20;;;3.27;;
3567;SDS011;1798;48.486;9.232;2022-10-16T01:19:01;4.33;;;2.47;;
3567;SDS011;1798;48.486;9.232;2022-10-16T01:21:35;5.30;;;2.40;;
3567;SDS011;1798;48.486;9.232;2022-10-16T01:24:03;6.07;;;2.30;;
3567;SDS011;1798;48.486;9.232;2022-10-16T01:26:44;10.93;;;2.40;;
3567;SDS011;1798;48.486;9.232;2022-10-16T01:29:32;25.17;;;2.93;;
3567;SDS011;1798;48.486;9.232;2022-10-16T01:32:04;11.00;;;3.00;;
3567;SDS011;1798;48.486;9.232;2022-10-16T01:34:37;43.70;;;3.07;;
3567;SDS011;1798;48.486;9.232;2022-10-16T01:37:09;4.20;;;2.47;;
3567;SDS011;1798;48.486;9.232;2022-10-16T01:39:39;10.37;;;3.20;;
3567;SDS011;1798;48.486;9.232;2022-10-16T01:42:09;8.43;;;3.53;;
3567;SDS011;1798;48.486;9.232;2022-10-16T01:44:41;18.93;;;2.90;;
3567;SDS011;1798;48.486;9.232;2022-10-16T01:47:09;4.17;;;2.53;;
3567;SDS011;1798;48.486;9.232;2022-10-16T01:49:37;6.40;;;2.83;;
3567;SDS011;1798;48.486;9.232;2022-10-16T01:52:06;6.43;;;2.03;;
3567;SDS011;1798;48.486;9.232;2022-10-16T01:54:37;8.73;;;2.33;;
3567;SDS011;1798;48.486;9.232;2022-10-16T01:57:04;4.43;;;2.47;;
3567;SDS011;1798;48.486;9.232;2022-10-16T01:59:35;7.87;;;2.50;;
3567;SDS011;1798;48.486;9.232;2022-10-16T02:02:09;10.73;;;3.00;;
3567;SDS011;1798;48.486;9.232;2022-10-16T02:04:38;6.80;;;2.37;;
3567;SDS011;1798;48.486;9.232;2022-10-16T02:07:06;8.07;;;2.60;;
3567;SDS011;1798;48.486;9.232;2022-10-16T02:09:33;9.07;;;2.83;;
3567;SDS011;1798;48.486;9.232;2022-10-16T02:12:01;11.30;;;3.07;;
3567;SDS011;1798;48.486;9.232;2022-10-16T02:14:30;8.83;;;2.53;;
3567;SDS011;1798;48.486;9.232;2022-10-16T02:16:58;9.60;;;2.90;;
3567;SDS011;1798;48.486;9.232;2022-10-16T02:19:26;4.20;;;2.57;;
3567;SDS011;1798;48.486;9.232;2022-10-16T02:21:54;5.83;;;2.43;;
3567;SDS011;1798;48.486;9.232;2022-10-16T02:24:24;4.43;;;2.33;;
3567;SDS011;1798;48.486;9.232;2022-10-16T02:26:57;10.00;;;3.00;;
3567;SDS011;1798;48.486;9.232;2022-10-16T02:29:28;8.33;;;3.00;;
3567;SDS011;1798;48.486;9.232;2022-10-16T02:31:56;12.60;;;2.73;;
3567;SDS011;1798;48.486;9.232;2022-10-16T02:34:26;8.40;;;2.83;;
3567;SDS011;1798;48.486;9.232;2022-10-16T02:36:54;15.43;;;3.20;;
3567;SDS011;1798;48.486;9.232;2022-10-16T02:39:22;4.10;;;2.57;;
3567;SDS011;1798;48.486;9.232;2022-10-16T02:41:48;4.63;;;2.73;;
3567;SDS011;1798;48.486;9.232;2022-10-16T02:44:15;9.83;;;3.00;;
3567;SDS011;1798;48.486;9.232;2022-10-16T02:46:42;10.23;;;2.90;;
3567;SDS011;1798;48.486;9.232;2022-10-16T02:49:09;3.63;;;2.10;;
3567;SDS011;1798;48.486;9.232;2022-10-16T02:51:37;4.00;;;2.57;;
3567;SDS011;1798;48.486;9.232;2022-10-16T02:54:04;11.20;;;3.27;;
3567;SDS011;1798;48.486;9.232;2022-10-16T02:56:31;8.23;;;3.80;;
3567;SDS011;1798;48.486;9.232;2022-10-16T02:58:57;4.47;;;2.43;;
3567;SDS011;1798;48.486;9.232;2022-10-16T03:01:24;4.80;;;2.50;;
3567;SDS011;1798;48.486;9.232;2022-10-16T03:03:50;9.37;;;2.70;;
3567;SDS011;1798;48.486;9.232;2022-10-16T03:06:17;16.33;;;2.97;;
3567;SDS011;1798;48.486;9.232;2022-10-16T03:08:46;6.80;;;2.87;;
3567;SDS011;1798;48.486;9.232;2022-10-16T03:11:12;8.10;;;2.57;;
3567;SDS011;1798;48.486;9.232;2022-10-16T03:13:39;4.20;;;2.53;;
3567;SDS011;1798;48.486;9.232;2022-10-16T03:16:06;15.20;;;3.20;;
3567;SDS011;1798;48.486;9.232;2022-10-16T03:18:33;4.37;;;2.40;;
3567;SDS011;1798;48.486;9.232;2022-10-16T03:21:00;7.07;;;2.60;;
3567;SDS011;1798;48.486;9.232;2022-10-16T03:23:26;5.27;;;2.60;;
3567;SDS011;1798;48.486;9.232;2022-10-16T03:25:55;6.60;;;2.87;;
3567;SDS011;1798;48.486;9.232;2022-10-16T03:28:22;12.93;;;3.13;;
3567;SDS011;1798;48.486;9.232;2022-10-16T03:30:48;8.20;;;2.90;;
3567;SDS011;1798;48.486;9.232;2022-10-16T03:33:15;11.63;;;3.70;;
3567;SDS011;1798;48.486;9.232;2022-10-16T03:35:42;3.93;;;2.53;;
3567;SDS011;1798;48.486;9.232;2022-10-16T03:38:09;9.30;;;2.60;;
3567;SDS011;1798;48.486;9.232;2022-10-16T03:40:35;7.43;;;2.47;;
3567;SDS011;1798;48.486;9.232;2022-10-16T03:43:04;14.20;;;2.63;;
3567;SDS011;1798;48.486;9.232;2022-10-16T03:45:31;24.83;;;2.73;;
3567;SDS011;1798;48.486;9.232;2022-10-16T03:47:58;13.80;;;3.67;;
3567;SDS011;1798;48.486;9.232;2022-10-16T03:50:24;5.20;;;2.93;;
3567;SDS011;1798;48.486;9.232;2022-10-16T03:52:51;6.30;;;3.13;;
3567;SDS011;1798;48.486;9.232;2022-10-16T03:55:17;12.07;;;3.20;;
3567;SDS011;1798;48.486;9.232;2022-10-16T03:57:44;16.17;;;3.13;;
3567;SDS011;1798;48.486;9.232;2022-10-16T04:00:13;8.90;;;2.63;;
3567;SDS011;1798;48.486;9.232;2022-10-16T04:02:39;4.77;;;2.70;;
3567;SDS011;1798;48.486;9.232;2022-10-16T04:05:06;8.63;;;2.93;;
3567;SDS011;1798;48.486;9.232;2022-10-16T04:07:33;8.63;;;2.93;;
3567;SDS011;1798;48.486;9.232;2022-10-16T04:10:00;6.03;;;2.80;;
3567;SDS011;1798;48.486;9.232;2022-10-16T04:12:27;6.47;;;2.87;;
3567;SDS011;1798;48.486;9.232;2022-10-16T04:14:53;4.70;;;2.60;;
3567;SDS011;1798;48.486;9.232;2022-10-16T04:17:21;7.50;;;2.80;;
3567;SDS011;1798;48.486;9.232;2022-10-16T04:19:48;17.33;;;2.50;;
3567;SDS011;1798;48.486;9.232;2022-10-16T04:22:15;7.20;;;2.80;;
3567;SDS011;1798;48.486;9.232;2022-10-16T04:24:42;4.67;;;3.00;;
3567;SDS011;1798;48.486;9.232;2022-10-16T04:27:08;6.87;;;2.57;;
3567;SDS011;1798;48.486;9.232;2022-10-16T04:29:35;8.17;;;2.63;;
3567;SDS011;1798;48.486;9.232;2022-10-16T04:32:02;5.13;;;3.30;;
3567;SDS011;1798;48.486;9.232;2022-10-16T04:34:30;5.37;;;2.63;;
3567;SDS011;1798;48.486;9.232;2022-10-16T04:36:56;3.80;;;2.50;;
3567;SDS011;1798;48.486;9.232;2022-10-16T04:39:23;20.93;;;2.80;;
3567;SDS011;1798;48.486;9.232;2022-10-16T04:41:50;9.30;;;2.80;;
3567;SDS011;1798;48.486;9.232;2022-10-16T04:44:16;12.10;;;2.63;;
3567;SDS011;1798;48.486;9.232;2022-10-16T04:46:43;8.10;;;2.50;;
3567;SDS011;1798;48.486;9.232;2022-10-16T04:49:10;9.30;;;3.30;;
3567;SDS011;1798;48.486;9.232;2022-10-16T04:51:38;3.53;;;2.30;;
3567;SDS011;1798;48.486;9.232;2022-10-16T04:54:05;7.30;;;2.83;;
3567;SDS011;1798;48.486;9.232;2022-10-16T04:56:31;4.37;;;2.67;;
3567;SDS011;1798;48.486;9.232;2022-10-16T04:59:05;18.67;;;3.23;;
3567;SDS011;1798;48.486;9.232;2022-10-16T05:01:31;14.27;;;2.47;;
3567;SDS011;1798;48.486;9.232;2022-10-16T05:03:58;9.50;;;3.47;;
3567;SDS011;1798;48.486;9.232;2022-10-16T05:06:25;7.17;;;3.57;;
3567;SDS011;1798;48.486;9.232;2022-10-16T05:08:53;8.67;;;2.60;;
3567;SDS011;1798;48.486;9.232;2022-10-16T05:11:19;8.23;;;3.27;;
3567;SDS011;1798;48.486;9.232;2022-10-16T05:13:46;5.17;;;3.53;;
3567;SDS011;1798;48.486;9.232;2022-10-16T05:16:13;25.10;;;3.33;;
3567;SDS011;1798;48.486;9.232;2022-10-16T05:18:39;10.90;;;3.47;;
3567;SDS011;1798;48.486;9.232;2022-10-16T05:21:06;5.33;;;2.83;;
3567;SDS011;1798;48.486;9.232;2022-10-16T05:23:32;18.63;;;3.50;;
3567;SDS011;1798;48.486;9.232;2022-10-16T05:26:01;16.83;;;3.37;;
3567;SDS011;1798;48.486;9.232;2022-10-16T05:28:28;7.50;;;2.20;;
3567;SDS011;1798;48.486;9.232;2022-10-16T05:30:56;6.90;;;3.97;;
3567;SDS011;1798;48.486;9.232;2022-10-16T05:33:24;10.07;;;3.20;;
3567;SDS011;1798;48.486;9.232;2022-10-16T05:35:51;10.70;;;3.70;;
3567;SDS011;1798;48.486;9.232;2022-10-16T05:38:18;16.93;;;3.00;;
3567;SDS011;1798;48.486;9.232;2022-10-16T05:40:50;4.87;;;2.90;;
3567;SDS011;1798;48.486;9.232;2022-10-16T05:43:18;6.57;;;3.10;;
3567;SDS011;1798;48.486;9.232;2022-10-16T05:45:52;7.30;;;3.23;;
3567;SDS011;1798;48.486;9.232;2022-10-16T05:48:20;7.53;;;3.10;;
3567;SDS011;1798;48.486;9.232;2022-10-16T05:50:47;5.53;;;2.93;;
3567;SDS011;1798;48.486;9.232;2022-10-16T05:53:14;13.80;;;3.50;;
3567;SDS011;1798;48.486;9.232;2022-10-16T05:55:40;7.33;;;3.50;;
3567;SDS011;1798;48.486;9.232;2022-10-16T05:58:07;4.30;;;2.60;;
3567;SDS011;1798;48.486;9.232;2022-10-16T06:00:35;3.77;;;2.40;;
3567;SDS011;1798;48.486;9.232;2022-10-16T06:03:02;10.13;;;3.00;;
3567;SDS011;1798;48.486;9.232;2022-10-16T06:05:29;4.33;;;2.80;;
3567;SDS011;1798;48.486;9.232;2022-10-16T06:07:56;4.37;;;2.47;;
3567;SDS011;1798;48.486;9.232;2022-10-16T06:10:23;8.40;;;2.87;;
3567;SDS011;1798;48.486;9.232;2022-10-16T06:12:50;6.30;;;2.73;;
3567;SDS011;1798;48.486;9.232;2022-10-16T06:15:16;5.77;;;2.70;;
3567;SDS011;1798;48.486;9.232;2022-10-16T06:17:44;8.30;;;2.70;;
3567;SDS011;1798;48.486;9.232;2022-10-16T06:20:11;10.77;;;3.53;;
3567;SDS011;1798;48.486;9.232;2022-10-16T06:22:38;7.17;;;3.10;;
3567;SDS011;1798;48.486;9.232;2022-10-16T06:25:05;17.43;;;3.50;;
3567;SDS011;1798;48.486;9.232;2022-10-16T06:27:32;17.17;;;3.53;;
3567;SDS011;1798;48.486;9.232;2022-10-16T06:29:59;9.20;;;3.47;;
3567;SDS011;1798;48.486;9.232;2022-10-16T06:32:25;12.10;;;3.53;;
3567;SDS011;1798;48.486;9.232;2022-10-16T06:34:55;10.43;;;3.80;;
3567;SDS011;1798;48.486;9.232;2022-10-16T06:37:22;8.87;;;3.07;;
3567;SDS011;1798;48.486;9.232;2022-10-16T06:39:49;4.50;;;3.10;;
3567;SDS011;1798;48.486;9.232;2022-10-16T06:42:17;14.90;;;3.80;;
3567;SDS011;1798;48.486;9.232;2022-10-16T06:44:43;13.53;;;2.40;;
3567;SDS011;1798;48.486;9.232;2022-10-16T06:47:10;14.57;;;3.97;;
3567;SDS011;1798;48.486;9.232;2022-10-16T06:49:37;5.93;;;2.40;;
3567;SDS011;1798;48.486;9.232;2022-10-16T06:52:06;14.80;;;3.40;;
3567;SDS011;1798;48.486;9.232;2022-10-16T06:54:32;5.00;;;2.63;;
3567;SDS011;1798;48.486;9.232;2022-10-16T06:56:59;11.10;;;3.30;;
3567;SDS011;1798;48.486;9.232;2022-10-16T06:59:26;10.10;;;3.63;;
3567;SDS011;1798;48.486;9.232;2022-10-16T07:01:53;9.93;;;4.10;;
3567;SDS011;1798;48.486;9.232;2022-10-16T07:04:20;4.47;;;2.70;;
3567;SDS011;1798;48.486;9.232;2022-10-16T07:06:46;10.33;;;4.30;;
3567;SDS011;1798;48.486;9.232;2022-10-16T07:09:15;25.10;;;3.87;;
3567;SDS011;1798;48.486;9.232;2022-10-16T07:11:41;3.87;;;2.37;;
3567;SDS011;1798;48.486;9.232;2022-10-16T07:14:12;5.53;;;2.73;;
3567;SDS011;1798;48.486;9.232;2022-10-16T07:16:41;8.30;;;3.23;;
3567;SDS011;1798;48.486;9.232;2022-10-16T07:19:08;3.93;;;2.40;;
3567;SDS011;1798;48.486;9.232;2022-10-16T07:21:37;4.10;;;2.33;;
3567;SDS011;1798;48.486;9.232;2022-10-16T07:24:04;4.57;;;2.40;;
3567;SDS011;1798;48.486;9.232;2022-10-16T07:26:34;9.30;;;4.03;;
3567;SDS011;1798;48.486;9.232;2022-10-16T07:29:02;31.97;;;4.57;;
3567;SDS011;1798;48.486;9.232;2022-10-16T07:31:29;4.10;;;2.27;;
3567;SDS011;1798;48.486;9.232;2022-10-16T07:33:57;7.53;;;2.97;;
3567;SDS011;1798;48.486;9.232;2022-10-16T07:36:29;5.50;;;2.77;;
3567;SDS011;1798;48.486;9.232;2022-10-16T07:49:38;9.20;;;3.57;;
3567;SDS011;1798;48.486;9.232;2022-10-16T07:52:04;15.63;;;3.53;;
3567;SDS011;1798;48.486;9.232;2022-10-16T07:54:31;9.10;;;3.07;;
3567;SDS011;1798;48.486;9.232;2022-10-16T07:56:58;9.63;;;3.60;;
3567;SDS011;1798;48.486;9.232;2022-10-16T07:59:24;15.23;;;4.20;;
3567;SDS011;1798;48.486;9.232;2022-10-16T08:01:51;9.87;;;4.43;;
3567;SDS011;1798;48.486;9.232;2022-10-16T08:04:17;11.33;;;6.83;;
3567;SDS011;1798;48.486;9.232;2022-10-16T08:06:45;24.27;;;6.87;;
3567;SDS011;1798;48.486;9.232;2022-10-16T08:09:12;21.20;;;7.07;;
3567;SDS011;1798;48.486;9.232;2022-10-16T08:11:39;29.93;;;5.60;;
3567;SDS011;1798;48.486;9.232;2022-10-16T08:14:06;25.40;;;4.80;;
3567;SDS011;1798;48.486;9.232;2022-10-16T08:16:32;6.33;;;3.80;;
3567;SDS011;1798;48.486;9.232;2022-10-16T08:18:59;17.00;;;3.90;;
3567;SDS011;1798;48.486;9.232;2022-10-16T08:21:26;8.70;;;3.13;;
3567;SDS011;1798;48.486;9.232;2022-10-16T08:23:54;10.33;;;3.13;;
3567;SDS011;1798;48.486;9.232;2022-10-16T08:26:21;10.83;;;3.63;;
3567;SDS011;1798;48.486;9.232;2022-10-16T08:28:49;15.23;;;4.20;;
3567;SDS011;1798;48.486;9.232;2022-10-16T08:31:16;7.67;;;4.00;;
3567;SDS011;1798;48.486;9.232;2022-10-16T08:33:44;10.30;;;5.07;;
3567;SDS011;1798;48.486;9.232;2022-10-16T08:36:12;9.87;;;4.57;;
3567;SDS011;1798;48.486;9.232;2022-10-16T08:38:39;7.07;;;4.57;;
3567;SDS011;1798;48.486;9.232;2022-10-16T08:41:16;19.63;;;4.40;;
3567;SDS011;1798;48.486;9.232;2022-10-16T08:43:54;9.00;;;3.50;;
3567;SDS011;1798;48.486;9.232;2022-10-16T08:46:33;10.20;;;4.80;;
3567;SDS011;1798;48.486;9.232;2022-10-16T08:49:05;11.37;;;4.90;;
3567;SDS011;1798;48.486;9.232;2022-10-16T08:51:39;8.27;;;4.13;;
3567;SDS011;1798;48.486;9.232;2022-10-16T08:54:06;11.50;;;4.27;;
3567;SDS011;1798;48.486;9.232;2022-10-16T08:56:43;11.23;;;4.70;;
3567;SDS011;1798;48.486;9.232;2022-10-16T08:59:10;10.43;;;3.30;;
3567;SDS011;1798;48.486;9.232;2022-10-16T09:01:37;12.83;;;4.00;;
3567;SDS011;1798;48.486;9.232;2022-10-16T09:04:11;10.33;;;3.60;;
3567;SDS011;1798;48.486;9.232;2022-10-16T09:06:57;12.57;;;3.70;;
3567;SDS011;1798;48.486;9.232;2022-10-16T09:09:39;11.50;;;3.33;;
3567;SDS011;1798;48.486;9.232;2022-10-16T09:12:16;14.87;;;3.57;;
3567;SDS011;1798;48.486;9.232;2022-10-16T09:17:37;27.07;;;3.90;;
3567;SDS011;1798;48.486;9.232;2022-10-16T09:23:00;5.10;;;3.37;;
3567;SDS011;1798;48.486;9.232;2022-10-16T09:25:34;8.03;;;3.90;;
3567;SDS011;1798;48.486;9.232;2022-10-16T09:28:03;20.87;;;3.87;;
3567;SDS011;1798;48.486;9.232;2022-10-16T09:30:30;9.90;;;3.40;;
3567;SDS011;1798;48.486;9.232;2022-10-16T09:32:57;20.53;;;4.90;;
3567;SDS011;1798;48.486;9.232;2022-10-16T09:35:31;6.63;;;2.80;;
3567;SDS011;1798;48.486;9.232;2022-10-16T09:37:59;8.07;;;4.17;;
3567;SDS011;1798;48.486;9.232;2022-10-16T09:40:32;6.30;;;3.10;;
3567;SDS011;1798;48.486;9.232;2022-10-16T09:43:06;5.40;;;3.43;;
3567;SDS011;1798;48.486;9.232;2022-10-16T09:45:52;7.37;;;3.47;;
3567;SDS011;1798;48.486;9.232;2022-10-16T09:48:20;5.83;;;3.50;;
3567;SDS011;1798;48.486;9.232;2022-10-16T09:50:55;5.60;;;3.67;;
3567;SDS011;1798;48.486;9.232;2022-10-16T09:53:23;11.93;;;3.37;;
3567;SDS011;1798;48.486;9.232;2022-10-16T09:55:51;17.87;;;3.73;;
3567;SDS011;1798;48.486;9.232;2022-10-16T09:58:23;5.37;;;3.20;;
3567;SDS011;1798;48.486;9.232;2022-10-16T10:00:50;9.03;;;3.87;;
3567;SDS011;1798;48.486;9.232;2022-10-16T10:03:26;7.40;;;3.63;;
3567;SDS011;1798;48.486;9.232;2022-10-16T10:06:00;6.53;;;3.90;;
3567;SDS011;1798;48.486;9.232;2022-10-16T10:08:31;9.23;;;3.90;;
3567;SDS011;1798;48.486;9.232;2022-10-16T10:10:58;5.10;;;2.83;;
3567;SDS011;1798;48.486;9.232;2022-10-16T10:13:27;5.53;;;3.40;;
3567;SDS011;1798;48.486;9.232;2022-10-16T10:15:55;11.43;;;4.07;;
3567;SDS011;1798;48.486;9.232;2022-10-16T10:18:25;7.33;;;4.30;;
3567;SDS011;1798;48.486;9.232;2022-10-16T10:20:59;14.97;;;3.37;;
3567;SDS011;1798;48.486;9.232;2022-10-16T10:23:28;7.30;;;3.07;;
3567;SDS011;1798;48.486;9.232;2022-10-16T10:25:57;5.80;;;3.17;;
3567;SDS011;1798;48.486;9.232;2022-10-16T10:28:40;12.70;;;3.53;;
3567;SDS011;1798;48.486;9.232;2022-10-16T10:31:20;6.37;;;3.67;;
3567;SDS011;1798;48.486;9.232;2022-10-16T10:33:52;11.30;;;4.30;;
3567;SDS011;1798;48.486;9.232;2022-10-16T10:36:26;5.70;;;3.30;;
3567;SDS011;1798;48.486;9.232;2022-10-16T10:38:56;6.63;;;3.70;;
3567;SDS011;1798;48.486;9.232;2022-10-16T10:41:29;5.17;;;3.10;;
3567;SDS011;1798;48.486;9.232;2022-10-16T10:44:21;5.80;;;3.47;;
3567;SDS011;1798;48.486;9.232;2022-10-16T10:46:55;9.33;;;3.73;;
3567;SDS011;1798;48.486;9.232;2022-10-16T10:49:39;4.80;;;3.00;;
3567;SDS011;1798;48.486;9.232;2022-10-16T10:52:20;4.77;;;2.97;;
3567;SDS011;1798;48.486;9.232;2022-10-16T10:55:00;7.00;;;3.13;;
3567;SDS011;1798;48.486;9.232;2022-10-16T10:57:32;6.13;;;3.53;;
3567;SDS011;1798;48.486;9.232;2022-10-16T11:00:06;5.27;;;3.17;;
3567;SDS011;1798;48.486;9.232;2022-10-16T11:02:41;7.30;;;3.40;;
3567;SDS011;1798;48.486;9.232;2022-10-16T11:05:23;5.53;;;3.00;;
3567;SDS011;1798;48.486;9.232;2022-10-16T11:08:07;6.13;;;3.33;;
3567;SDS011;1798;48.486;9.232;2022-10-16T11:10:41;4.50;;;3.10;;
3567;SDS011;1798;48.486;9.232;2022-10-16T11:13:15;9.30;;;3.20;;
3567;SDS011;1798;48.486;9.232;2022-10-16T11:15:53;8.13;;;2.87;;
3567;SDS011;1798;48.486;9.232;2022-10-16T11:18:29;8.33;;;3.97;;
3567;SDS011;1798;48.486;9.232;2022-10-16T11:21:01;5.73;;;3.50;;
3567;SDS011;1798;48.486;9.232;2022-10-16T11:23:30;5.03;;;3.23;;
3567;SDS011;1798;48.486;9.232;2022-10-16T11:26:01;6.00;;;3.30;;
3567;SDS011;1798;48.486;9.232;2022-10-16T11:28:34;5.50;;;3.20;;
3567;SDS011;1798;48.486;9.232;2022-10-16T11:31:08;6.83;;;3.60;;
3567;SDS011;1798;48.486;9.232;2022-10-16T11:33:42;5.57;;;2.93;;
3567;SDS011;1798;48.486;9.232;2022-10-16T11:36:13;6.07;;;3.77;;
3567;SDS011;1798;48.486;9.232;2022-10-16T11:38:49;5.27;;;3.33;;
3567;SDS011;1798;48.486;9.232;2022-10-16T11:41:22;5.80;;;3.53;;
3567;SDS011;1798;48.486;9.232;2022-10-16T11:43:56;5.20;;;2.80;;
3567;SDS011;1798;48.486;9.232;2022-10-16T11:46:31;7.10;;;3.77;;
3567;SDS011;1798;48.486;9.232;2022-10-16T11:49:01;5.43;;;3.40;;
3567;SDS011;1798;48.486;9.232;2022-10-16T11:51:31;4.93;;;3.40;;
3567;SDS011;1798;48.486;9.232;2022-10-16T11:54:03;5.97;;;3.00;;
3567;SDS011;1798;48.486;9.232;2022-10-16T11:56:35;8.43;;;3.63;;
3567;SDS011;1798;48.486;9.232;2022-10-16T11:59:05;5.97;;;3.20;;
3567;SDS011;1798;48.486;9.232;2022-10-16T12:01:40;4.93;;;3.03;;
3567;SDS011;1798;48.486;9.232;2022-10-16T12:04:19;5.80;;;3.10;;
3567;SDS011;1798;48.486;9.232;2022-10-16T12:06:53;9.13;;;3.53;;
3567;SDS011;1798;48.486;9.232;2022-10-16T12:09:26;8.00;;;3.27;;
3567;SDS011;1798;48.486;9.232;2022-10-16T12:12:01;7.03;;;3.30;;
3567;SDS011;1798;48.486;9.232;2022-10-16T12:14:33;6.00;;;3.07;;
3567;SDS011;1798;48.486;9.232;2022-10-16T12:17:03;8.23;;;3.63;;
3567;SDS011;1798;48.486;9.232;2022-10-16T12:19:56;5.37;;;2.63;;
3567;SDS011;1798;48.486;9.232;2022-10-16T12:22:23;14.17;;;3.47;;
3567;SDS011;1798;48.486;9.232;2022-10-16T12:24:53;9.80;;;3.43;;
3567;SDS011;1798;48.486;9.232;2022-10-16T12:27:23;5.93;;;3.60;;
3567;SDS011;1798;48.486;9.232;2022-10-16T12:29:54;5.60;;;3.43;;
3567;SDS011;1798;48.486;9.232;2022-10-16T12:32:24;8.10;;;3.37;;
3567;SDS011;1798;48.486;9.232;2022-10-16T12:34:54;5.90;;;3.23;;
3567;SDS011;1798;48.486;9.232;2022-10-16T12:37:22;5.33;;;3.57;;
3567;SDS011;1798;48.486;9.232;2022-10-16T12:39:50;7.47;;;3.83;;
3567;SDS011;1798;48.486;9.232;2022-10-16T12:42:20;6.90;;;3.43;;
3567;SDS011;1798;48.486;9.232;2022-10-16T12:44:58;5.00;;;2.80;;
3567;SDS011;1798;48.486;9.232;2022-10-16T12:47:36;7.80;;;3.60;;
3567;SDS011;1798;48.486;9.232;2022-10-16T12:52:49;5.60;;;3.17;;
3567;SDS011;1798;48.486;9.232;2022-10-16T12:55:17;5.13;;;3.17;;
3567;SDS011;1798;48.486;9.232;2022-10-16T12:57:45;6.80;;;3.57;;
3567;SDS011;1798;48.486;9.232;2022-10-16T13:00:26;4.97;;;3.20;;
3567;SDS011;1798;48.486;9.232;2022-10-16T13:03:13;4.87;;;3.20;;
3567;SDS011;1798;48.486;9.232;2022-10-16T13:05:53;6.80;;;3.50;;
3567;SDS011;1798;48.486;9.232;2022-10-16T13:08:35;9.40;;;3.90;;
3567;SDS011;1798;48.486;9.232;2022-10-16T13:11:12;6.10;;;3.37;;
3567;SDS011;1798;48.486;9.232;2022-10-16T13:13:49;6.50;;;3.00;;
3567;SDS011;1798;48.486;9.232;2022-10-16T13:16:30;8.13;;;3.30;;
3567;SDS011;1798;48.486;9.232;2022-10-16T13:19:09;7.53;;;3.93;;
3567;SDS011;1798;48.486;9.232;2022-10-16T13:21:42;6.10;;;3.60;;
3567;SDS011;1798;48.486;9.232;2022-10-16T13:24:26;4.70;;;3.07;;
3567;SDS011;1798;48.486;9.232;2022-10-16T13:27:04;5.53;;;2.97;;
3567;SDS011;1798;48.486;9.232;2022-10-16T13:29:33;6.73;;;3.67;;
3567;SDS011;1798;48.486;9.232;2022-10-16T13:32:01;4.60;;;3.37;;
3567;SDS011;1798;48.486;9.232;2022-10-16T13:34:41;5.83;;;4.10;;
3567;SDS011;1798;48.486;9.232;2022-10-16T13:37:15;14.90;;;4.20;;
3567;SDS011;1798;48.486;9.232;2022-10-16T13:39:43;5.13;;;3.40;;
3567;SDS011;1798;48.486;9.232;2022-10-16T13:42:11;6.20;;;3.90;;
3567;SDS011;1798;48.486;9.232;2022-10-16T13:44:43;5.80;;;3.40;;
3567;SDS011;1798;48.486;9.232;2022-10-16T13:47:14;11.63;;;3.67;;
3567;SDS011;1798;48.486;9.232;2022-10-16T13:49:43;5.33;;;3.30;;
3567;SDS011;1798;48.486;9.232;2022-10-16T13:52:15;5.53;;;3.70;;
3567;SDS011;1798;48.486;9.232;2022-10-16T13:54:43;6.63;;;3.53;;
3567;SDS011;1798;48.486;9.232;2022-10-16T13:57:12;6.10;;;3.20;;
3567;SDS011;1798;48.486;9.232;2022-10-16T13:59:40;5.70;;;3.80;;
3567;SDS011;1798;48.486;9.232;2022-10-16T14:02:08;6.80;;;3.90;;
3567;SDS011;1798;48.486;9.232;2022-10-16T14:04:44;18.93;;;3.40;;
3567;SDS011;1798;48.486;9.232;2022-10-16T14:07:13;7.10;;;3.33;;
3567;SDS011;1798;48.486;9.232;2022-10-16T14:09:41;6.13;;;4.10;;
3567;SDS011;1798;48.486;9.232;2022-10-16T14:12:08;8.30;;;3.70;;
3567;SDS011;1798;48.486;9.232;2022-10-16T14:14:40;7.53;;;3.90;;
3567;SDS011;1798;48.486;9.232;2022-10-16T14:17:13;16.70;;;3.87;;
3567;SDS011;1798;48.486;9.232;2022-10-16T14:19:40;5.60;;;3.87;;
3567;SDS011;1798;48.486;9.232;2022-10-16T14:22:18;7.67;;;3.87;;
3567;SDS011;1798;48.486;9.232;2022-10-16T14:24:49;11.80;;;4.53;;
3567;SDS011;1798;48.486;9.232;2022-10-16T14:27:28;4.50;;;3.00;;
3567;SDS011;1798;48.486;9.232;2022-10-16T14:30:12;14.73;;;4.00;;
3567;SDS011;1798;48.486;9.232;2022-10-16T14:32:41;8.20;;;3.97;;
3567;SDS011;1798;48.486;9.232;2022-10-16T14:35:21;17.03;;;6.03;;
3567;SDS011;1798;48.486;9.232;2022-10-16T14:37:54;6.33;;;4.10;;
3567;SDS011;1798;48.486;9.232;2022-10-16T14:40:23;6.87;;;3.60;;
3567;SDS011;1798;48.486;9.232;2022-10-16T14:42:50;8.77;;;4.10;;
3567;SDS011;1798;48.486;9.232;2022-10-16T14:45:18;15.60;;;4.00;;
3567;SDS011;1798;48.486;9.232;2022-10-16T14:47:47;5.90;;;3.53;;
3567;SDS011;1798;48.486;9.232;2022-10-16T14:50:16;6.30;;;3.67;;
3567;SDS011;1798;48.486;9.232;2022-10-16T14:52:43;22.80;;;4.17;;
3567;SDS011;1798;48.486;9.232;2022-10-16T14:55:11;5.53;;;3.53;;
3567;SDS011;1798;48.486;9.232;2022-10-16T14:57:38;7.73;;;4.00;;
3567;SDS011;1798;48.486;9.232;2022-10-16T15:00:10;6.03;;;3.80;;
3567;SDS011;1798;48.486;9.232;2022-10-16T15:02:41;4.60;;;3.00;;
3567;SDS011;1798;48.486;9.232;2022-10-16T15:05:11;6.53;;;3.93;;
3567;SDS011;1798;48.486;9.232;2022-10-16T15:07:42;5.53;;;3.80;;
3567;SDS011;1798;48.486;9.232;2022-10-16T15:10:11;5.53;;;4.13;;
3567;SDS011;1798;48.486;9.232;2022-10-16T15:12:38;9.77;;;4.00;;
3567;SDS011;1798;48.486;9.232;2022-10-16T15:15:27;6.20;;;3.57;;
3567;SDS011;1798;48.486;9.232;2022-10-16T15:17:58;5.77;;;4.00;;
3567;SDS011;1798;48.486;9.232;2022-10-16T15:20:26;9.20;;;4.17;;
3567;SDS011;1798;48.486;9.232;2022-10-16T15:22:53;8.83;;;4.07;;
3567;SDS011;1798;48.486;9.232;2022-10-16T15:25:27;9.10;;;3.90;;
3567;SDS011;1798;48.486;9.232;2022-10-16T15:27:57;10.53;;;3.70;;
3567;SDS011;1798;48.486;9.232;2022-10-16T15:30:24;16.20;;;3.73;;
3567;SDS011;1798;48.486;9.232;2022-10-16T15:32:50;7.60;;;3.60;;
3567;SDS011;1798;48.486;9.232;2022-10-16T15:35:17;15.67;;;3.70;;
3567;SDS011;1798;48.486;9.232;2022-10-16T15:37:44;29.83;;;3.90;;
3567;SDS011;1798;48.486;9.232;2022-10-16T15:40:12;15.83;;;3.90;;
3567;SDS011;1798;48.486;9.232;2022-10-16T15:42:40;11.50;;;3.60;;
3567;SDS011;1798;48.486;9.232;2022-10-16T15:45:08;5.57;;;3.20;;
3567;SDS011;1798;48.486;9.232;2022-10-16T15:47:35;19.30;;;4.30;;